Julie — WCX8613 — position and weather

sailwx.info

Track history (hours):
 
Tides and Currents Weather Stations Pressure Air Temp Water Temp Dewpoint Dewpoint Depression Visibility Wind Speed Wind Dir Waves Ship Positions

Julie

Owner: PENN MARITIME INC, SEATTLE, WA. More information available from US FCC via Universal Licensing System and Coast Guard Vessel Documentation Center.

Last reported at 2015-Jun-12 02:09 UTC. Time now 2015-Jun-30 21:28 UTC.
Position N 29°55' W 090°08'.
Warning: this ship's position is 18 days out of date.

Length 179 m; draft 9.1 m.

Type: Tow > 200 m length. MMSI: 368148000.

Date/timePositionNaut miles runAvg speedWind from/ knotsBaromVisibWave heightAir tempDewpointWater temp
2015-Jun-12 02:09N 29°55' W 090°08'4 5.6
2015-Jun-12 01:31N 29°56' W 090°04'0 0.1
2015-Jun-11 19:30N 29°56' W 090°03'0 0.0
2015-Jun-11 16:27N 29°56' W 090°03'0 0.0
2015-Jun-11 15:30N 29°56' W 090°03'0 0.0
2015-Jun-11 11:09N 29°56' W 090°03'0 0.0
2015-Jun-11 10:21N 29°56' W 090°03'0 0.0
2015-Jun-11 09:30N 29°56' W 090°03'18 0.9
2015-Jun-10 12:23N 29°59' W 090°24'0 0.0
2015-Jun-10 11:29N 29°59' W 090°24'0 0.0
2015-Jun-10 10:17N 29°59' W 090°24'0 0.0
2015-Jun-10 09:23N 29°59' W 090°24'  
2015-Jun-06 02:04N 29°55' W 090°07'3 6.4
2015-Jun-06 01:32N 29°56' W 090°04'5 3.2
2015-Jun-06 00:07N 29°56' W 089°58'  
Track history (hours):
 
Tides and Currents Weather Stations Pressure Air Temp Water Temp Dewpoint Dewpoint Depression Visibility Wind Speed Wind Dir Waves Ship Positions

Julie

Owner: PENN MARITIME INC, SEATTLE, WA. More information available from US FCC via Universal Licensing System and Coast Guard Vessel Documentation Center.

Last reported at 2015-Jun-12 02:09 UTC. Time now 2015-Jun-30 21:28 UTC.
Position N 29°55' W 090°08'.
Warning: this ship's position is 18 days out of date.

Length 179 m; draft 9.1 m.

Type: Tow > 200 m length. MMSI: 368148000.

Date/timePositionNaut miles runAvg speedWind from/ knotsBaromVisibWave heightAir tempDewpointWater temp
2015-Jun-12 02:09N 29°55' W 090°08'4 5.6
2015-Jun-12 01:31N 29°56' W 090°04'0 0.1
2015-Jun-11 19:30N 29°56' W 090°03'0 0.0
2015-Jun-11 16:27N 29°56' W 090°03'0 0.0
2015-Jun-11 15:30N 29°56' W 090°03'0 0.0
2015-Jun-11 11:09N 29°56' W 090°03'0 0.0
2015-Jun-11 10:21N 29°56' W 090°03'0 0.0
2015-Jun-11 09:30N 29°56' W 090°03'18 0.9
2015-Jun-10 12:23N 29°59' W 090°24'0 0.0
2015-Jun-10 11:29N 29°59' W 090°24'0 0.0
2015-Jun-10 10:17N 29°59' W 090°24'0 0.0
2015-Jun-10 09:23N 29°59' W 090°24'  
2015-Jun-06 02:04N 29°55' W 090°07'3 6.4
2015-Jun-06 01:32N 29°56' W 090°04'5 3.2
2015-Jun-06 00:07N 29°56' W 089°58'  

Dump ship's entire track history